Archival Weather

Kenosha Rgnl

Kenosha, Wisconsin (KENW)

Report from: Thursday, December 7, 2023 12:53 PM CST
Current time: Wednesday, April 24, 2024 2:52 PM CDT

Current weather – Weather history – Daily summaries
Weather forecast

Temperature10.6°C (51.1°F)
Dew point1.7°C (35.1°F)
Winds 6 kts (3.1 m/s, 6.9 mph) West-Southwest (240°)
Visibility10 mi. (16.1 km)
Clouds Sky clear
Altimeter29.78 in.Hg (1008 mB)
Relative humidity54 %
Density altitude-273 ft. (-83 m)
Sea-level pressure100.9 kPa (1009 mB, 29.79 in.Hg)
Remarks Automated weather observing station with precipitation discriminator
Flight conditions Visual Meteorological Conditions
Raw dataKENW 071853Z 24006KT 10SM CLR 11/02 A2978 RMK AO2 SLP089 T01060017
An error has occurred. This application may no longer respond until reloaded. Reload 🗙